sensor_id;sensor_type;location;lat;lon;timestamp;P1;durP1;ratioP1;P2;durP2;ratioP2
41436;SDS011;27178;49.460;10.850;2022-09-20T00:01:22;4.28;;;1.80;;
41436;SDS011;27178;49.460;10.850;2022-09-20T00:03:53;4.30;;;1.30;;
41436;SDS011;27178;49.460;10.850;2022-09-20T00:06:25;3.33;;;1.65;;
41436;SDS011;27178;49.460;10.850;2022-09-20T00:08:55;1.80;;;1.23;;
41436;SDS011;27178;49.460;10.850;2022-09-20T00:11:25;2.63;;;1.42;;
41436;SDS011;27178;49.460;10.850;2022-09-20T00:13:55;2.77;;;1.80;;
41436;SDS011;27178;49.460;10.850;2022-09-20T00:16:26;3.23;;;1.37;;
41436;SDS011;27178;49.460;10.850;2022-09-20T00:18:58;4.15;;;1.70;;
41436;SDS011;27178;49.460;10.850;2022-09-20T00:21:30;5.03;;;1.20;;
41436;SDS011;27178;49.460;10.850;2022-09-20T00:24:00;1.73;;;1.27;;
41436;SDS011;27178;49.460;10.850;2022-09-20T00:26:28;3.00;;;1.50;;
41436;SDS011;27178;49.460;10.850;2022-09-20T00:28:56;1.33;;;1.20;;
41436;SDS011;27178;49.460;10.850;2022-09-20T00:31:25;3.72;;;1.65;;
41436;SDS011;27178;49.460;10.850;2022-09-20T00:33:53;2.45;;;1.52;;
41436;SDS011;27178;49.460;10.850;2022-09-20T00:36:42;1.77;;;1.23;;
41436;SDS011;27178;49.460;10.850;2022-09-20T00:39:12;2.50;;;1.43;;
41436;SDS011;27178;49.460;10.850;2022-09-20T00:41:41;2.03;;;1.40;;
41436;SDS011;27178;49.460;10.850;2022-09-20T00:47:14;3.20;;;1.40;;
41436;SDS011;27178;49.460;10.850;2022-09-20T00:49:48;2.67;;;1.57;;
41436;SDS011;27178;49.460;10.850;2022-09-20T00:52:20;3.13;;;1.75;;
41436;SDS011;27178;49.460;10.850;2022-09-20T00:54:49;1.87;;;1.30;;
41436;SDS011;27178;49.460;10.850;2022-09-20T00:57:17;1.70;;;1.30;;
41436;SDS011;27178;49.460;10.850;2022-09-20T00:59:45;4.93;;;1.50;;
41436;SDS011;27178;49.460;10.850;2022-09-20T01:02:16;2.75;;;1.15;;
41436;SDS011;27178;49.460;10.850;2022-09-20T01:04:50;2.28;;;1.17;;
41436;SDS011;27178;49.460;10.850;2022-09-20T01:07:20;2.73;;;1.23;;
41436;SDS011;27178;49.460;10.850;2022-09-20T01:09:49;6.63;;;1.67;;
41436;SDS011;27178;49.460;10.850;2022-09-20T01:12:20;3.13;;;1.20;;
41436;SDS011;27178;49.460;10.850;2022-09-20T01:14:50;1.55;;;1.40;;
41436;SDS011;27178;49.460;10.850;2022-09-20T01:17:20;2.70;;;1.30;;
41436;SDS011;27178;49.460;10.850;2022-09-20T01:19:55;3.67;;;1.43;;
41436;SDS011;27178;49.460;10.850;2022-09-20T01:22:37;2.43;;;1.37;;
41436;SDS011;27178;49.460;10.850;2022-09-20T01:25:16;3.43;;;1.50;;
41436;SDS011;27178;49.460;10.850;2022-09-20T01:27:55;1.83;;;1.60;;
41436;SDS011;27178;49.460;10.850;2022-09-20T01:30:24;3.20;;;1.97;;
41436;SDS011;27178;49.460;10.850;2022-09-20T01:33:02;1.93;;;1.40;;
41436;SDS011;27178;49.460;10.850;2022-09-20T01:35:36;3.27;;;1.87;;
41436;SDS011;27178;49.460;10.850;2022-09-20T01:38:15;5.73;;;1.60;;
41436;SDS011;27178;49.460;10.850;2022-09-20T01:40:58;3.60;;;1.80;;
41436;SDS011;27178;49.460;10.850;2022-09-20T01:43:33;1.80;;;1.33;;
41436;SDS011;27178;49.460;10.850;2022-09-20T01:46:07;2.20;;;1.70;;
41436;SDS011;27178;49.460;10.850;2022-09-20T01:48:45;2.80;;;1.60;;
41436;SDS011;27178;49.460;10.850;2022-09-20T01:51:30;1.50;;;1.30;;
41436;SDS011;27178;49.460;10.850;2022-09-20T02:00:34;2.50;;;1.67;;
41436;SDS011;27178;49.460;10.850;2022-09-20T02:06:27;2.40;;;1.57;;
41436;SDS011;27178;49.460;10.850;2022-09-20T02:09:20;2.53;;;1.58;;
41436;SDS011;27178;49.460;10.850;2022-09-20T02:12:16;3.33;;;1.73;;
41436;SDS011;27178;49.460;10.850;2022-09-20T02:15:01;3.40;;;1.67;;
41436;SDS011;27178;49.460;10.850;2022-09-20T02:17:40;3.05;;;1.63;;
41436;SDS011;27178;49.460;10.850;2022-09-20T02:20:22;3.37;;;1.40;;
41436;SDS011;27178;49.460;10.850;2022-09-20T02:23:05;4.73;;;2.23;;
41436;SDS011;27178;49.460;10.850;2022-09-20T02:25:52;2.08;;;1.60;;
41436;SDS011;27178;49.460;10.850;2022-09-20T02:28:30;3.07;;;1.57;;
41436;SDS011;27178;49.460;10.850;2022-09-20T02:31:15;3.00;;;1.70;;
41436;SDS011;27178;49.460;10.850;2022-09-20T02:34:10;2.53;;;1.55;;
41436;SDS011;27178;49.460;10.850;2022-09-20T02:37:23;3.33;;;1.60;;
41436;SDS011;27178;49.460;10.850;2022-09-20T02:40:18;3.93;;;1.73;;
41436;SDS011;27178;49.460;10.850;2022-09-20T02:42:55;4.27;;;1.63;;
41436;SDS011;27178;49.460;10.850;2022-09-20T02:45:31;2.73;;;1.47;;
41436;SDS011;27178;49.460;10.850;2022-09-20T02:48:06;2.33;;;1.80;;
41436;SDS011;27178;49.460;10.850;2022-09-20T02:50:39;2.13;;;1.53;;
41436;SDS011;27178;49.460;10.850;2022-09-20T02:53:16;2.73;;;1.90;;
41436;SDS011;27178;49.460;10.850;2022-09-20T02:56:00;1.53;;;1.40;;
41436;SDS011;27178;49.460;10.850;2022-09-20T02:58:37;2.70;;;1.70;;
41436;SDS011;27178;49.460;10.850;2022-09-20T03:01:16;5.25;;;2.17;;
41436;SDS011;27178;49.460;10.850;2022-09-20T03:03:54;3.10;;;1.50;;
41436;SDS011;27178;49.460;10.850;2022-09-20T03:06:32;2.47;;;1.67;;
41436;SDS011;27178;49.460;10.850;2022-09-20T03:09:10;3.78;;;1.77;;
41436;SDS011;27178;49.460;10.850;2022-09-20T03:11:46;5.72;;;1.95;;
41436;SDS011;27178;49.460;10.850;2022-09-20T03:14:23;2.72;;;1.50;;
41436;SDS011;27178;49.460;10.850;2022-09-20T03:16:59;3.03;;;1.95;;
41436;SDS011;27178;49.460;10.850;2022-09-20T03:19:35;3.25;;;1.35;;
41436;SDS011;27178;49.460;10.850;2022-09-20T03:22:17;2.83;;;1.70;;
41436;SDS011;27178;49.460;10.850;2022-09-20T03:24:57;2.00;;;1.43;;
41436;SDS011;27178;49.460;10.850;2022-09-20T03:27:42;5.43;;;1.70;;
41436;SDS011;27178;49.460;10.850;2022-09-20T03:30:19;1.92;;;1.42;;
41436;SDS011;27178;49.460;10.850;2022-09-20T03:32:59;3.50;;;2.20;;
41436;SDS011;27178;49.460;10.850;2022-09-20T03:35:36;4.97;;;1.67;;
41436;SDS011;27178;49.460;10.850;2022-09-20T03:38:24;3.30;;;1.55;;
41436;SDS011;27178;49.460;10.850;2022-09-20T03:41:27;3.35;;;1.77;;
41436;SDS011;27178;49.460;10.850;2022-09-20T03:47:04;2.53;;;1.63;;
41436;SDS011;27178;49.460;10.850;2022-09-20T03:49:50;2.23;;;1.90;;
41436;SDS011;27178;49.460;10.850;2022-09-20T03:56:09;1.97;;;1.50;;
41436;SDS011;27178;49.460;10.850;2022-09-20T03:58:54;3.17;;;1.80;;
41436;SDS011;27178;49.460;10.850;2022-09-20T04:01:46;3.13;;;1.70;;
41436;SDS011;27178;49.460;10.850;2022-09-20T04:04:31;3.77;;;1.90;;
41436;SDS011;27178;49.460;10.850;2022-09-20T04:07:11;3.57;;;2.10;;
41436;SDS011;27178;49.460;10.850;2022-09-20T04:09:53;2.27;;;1.80;;
41436;SDS011;27178;49.460;10.850;2022-09-20T04:12:31;3.90;;;1.70;;
41436;SDS011;27178;49.460;10.850;2022-09-20T04:15:15;6.93;;;2.10;;
41436;SDS011;27178;49.460;10.850;2022-09-20T04:17:52;5.57;;;2.30;;
41436;SDS011;27178;49.460;10.850;2022-09-20T04:20:27;3.22;;;1.92;;
41436;SDS011;27178;49.460;10.850;2022-09-20T04:23:04;4.00;;;1.80;;
41436;SDS011;27178;49.460;10.850;2022-09-20T04:25:41;3.83;;;2.03;;
41436;SDS011;27178;49.460;10.850;2022-09-20T04:28:16;3.23;;;1.90;;
41436;SDS011;27178;49.460;10.850;2022-09-20T04:30:50;4.93;;;2.40;;
41436;SDS011;27178;49.460;10.850;2022-09-20T04:33:24;3.17;;;2.10;;
41436;SDS011;27178;49.460;10.850;2022-09-20T04:35:59;3.17;;;2.30;;
41436;SDS011;27178;49.460;10.850;2022-09-20T04:38:56;4.30;;;2.00;;
41436;SDS011;27178;49.460;10.850;2022-09-20T04:57:52;5.73;;;2.60;;
41436;SDS011;27178;49.460;10.850;2022-09-20T05:00:54;3.67;;;2.70;;
41436;SDS011;27178;49.460;10.850;2022-09-20T05:04:08;4.00;;;2.30;;
41436;SDS011;27178;49.460;10.850;2022-09-20T05:07:03;7.60;;;2.70;;
41436;SDS011;27178;49.460;10.850;2022-09-20T05:13:07;4.23;;;2.60;;
41436;SDS011;27178;49.460;10.850;2022-09-20T05:15:43;4.23;;;2.67;;
41436;SDS011;27178;49.460;10.850;2022-09-20T05:18:39;4.73;;;2.90;;
41436;SDS011;27178;49.460;10.850;2022-09-20T05:21:31;5.47;;;2.80;;
41436;SDS011;27178;49.460;10.850;2022-09-20T05:24:24;5.50;;;2.80;;
41436;SDS011;27178;49.460;10.850;2022-09-20T05:27:18;4.20;;;2.47;;
41436;SDS011;27178;49.460;10.850;2022-09-20T05:29:58;4.43;;;2.87;;
41436;SDS011;27178;49.460;10.850;2022-09-20T05:32:34;5.97;;;3.57;;
41436;SDS011;27178;49.460;10.850;2022-09-20T05:35:14;4.60;;;2.83;;
41436;SDS011;27178;49.460;10.850;2022-09-20T05:37:49;5.43;;;3.07;;
41436;SDS011;27178;49.460;10.850;2022-09-20T05:40:27;6.07;;;3.67;;
41436;SDS011;27178;49.460;10.850;2022-09-20T05:43:01;5.13;;;3.07;;
41436;SDS011;27178;49.460;10.850;2022-09-20T05:45:47;4.70;;;3.10;;
41436;SDS011;27178;49.460;10.850;2022-09-20T05:48:30;4.40;;;2.70;;
41436;SDS011;27178;49.460;10.850;2022-09-20T05:51:08;5.10;;;2.93;;
41436;SDS011;27178;49.460;10.850;2022-09-20T05:56:53;4.70;;;3.23;;
41436;SDS011;27178;49.460;10.850;2022-09-20T05:59:36;8.20;;;3.43;;
41436;SDS011;27178;49.460;10.850;2022-09-20T06:02:18;5.80;;;3.67;;
41436;SDS011;27178;49.460;10.850;2022-09-20T06:04:57;5.63;;;3.73;;
41436;SDS011;27178;49.460;10.850;2022-09-20T06:07:31;6.07;;;3.67;;
41436;SDS011;27178;49.460;10.850;2022-09-20T06:10:16;3.73;;;3.00;;
41436;SDS011;27178;49.460;10.850;2022-09-20T06:13:01;7.97;;;3.50;;
41436;SDS011;27178;49.460;10.850;2022-09-20T06:15:39;5.20;;;3.37;;
41436;SDS011;27178;49.460;10.850;2022-09-20T06:18:19;4.70;;;3.60;;
41436;SDS011;27178;49.460;10.850;2022-09-20T06:20:55;6.17;;;3.87;;
41436;SDS011;27178;49.460;10.850;2022-09-20T06:23:34;4.87;;;3.20;;
41436;SDS011;27178;49.460;10.850;2022-09-20T06:26:03;9.70;;;3.90;;
41436;SDS011;27178;49.460;10.850;2022-09-20T06:28:37;6.73;;;4.07;;
41436;SDS011;27178;49.460;10.850;2022-09-20T06:31:08;6.53;;;3.80;;
41436;SDS011;27178;49.460;10.850;2022-09-20T06:33:39;4.77;;;3.30;;
41436;SDS011;27178;49.460;10.850;2022-09-20T06:36:13;7.10;;;3.50;;
41436;SDS011;27178;49.460;10.850;2022-09-20T06:39:04;6.90;;;3.87;;
41436;SDS011;27178;49.460;10.850;2022-09-20T06:41:56;8.70;;;4.57;;
41436;SDS011;27178;49.460;10.850;2022-09-20T06:44:25;7.57;;;4.10;;
41436;SDS011;27178;49.460;10.850;2022-09-20T06:46:54;5.00;;;3.40;;
41436;SDS011;27178;49.460;10.850;2022-09-20T06:49:22;6.00;;;3.80;;
41436;SDS011;27178;49.460;10.850;2022-09-20T06:51:55;5.10;;;3.20;;
41436;SDS011;27178;49.460;10.850;2022-09-20T06:54:24;6.03;;;3.53;;
41436;SDS011;27178;49.460;10.850;2022-09-20T06:56:52;7.00;;;3.70;;
41436;SDS011;27178;49.460;10.850;2022-09-20T06:59:21;6.10;;;3.87;;
41436;SDS011;27178;49.460;10.850;2022-09-20T07:01:49;6.97;;;3.57;;
41436;SDS011;27178;49.460;10.850;2022-09-20T07:04:17;5.07;;;3.70;;
41436;SDS011;27178;49.460;10.850;2022-09-20T07:06:47;7.67;;;3.53;;
41436;SDS011;27178;49.460;10.850;2022-09-20T07:09:17;6.97;;;3.47;;
41436;SDS011;27178;49.460;10.850;2022-09-20T07:11:46;3.83;;;2.83;;
41436;SDS011;27178;49.460;10.850;2022-09-20T07:14:14;6.20;;;3.53;;
41436;SDS011;27178;49.460;10.850;2022-09-20T07:16:44;6.63;;;3.60;;
41436;SDS011;27178;49.460;10.850;2022-09-20T07:19:12;7.30;;;3.47;;
41436;SDS011;27178;49.460;10.850;2022-09-20T07:21:41;4.03;;;2.83;;
41436;SDS011;27178;49.460;10.850;2022-09-20T07:24:10;6.17;;;2.90;;
41436;SDS011;27178;49.460;10.850;2022-09-20T07:26:42;4.73;;;3.13;;
41436;SDS011;27178;49.460;10.850;2022-09-20T07:29:21;3.03;;;2.70;;
41436;SDS011;27178;49.460;10.850;2022-09-20T07:31:50;6.05;;;2.95;;
41436;SDS011;27178;49.460;10.850;2022-09-20T07:34:19;6.57;;;2.70;;
41436;SDS011;27178;49.460;10.850;2022-09-20T07:36:47;5.57;;;2.77;;
41436;SDS011;27178;49.460;10.850;2022-09-20T07:39:15;5.07;;;2.90;;
41436;SDS011;27178;49.460;10.850;2022-09-20T07:41:45;4.20;;;2.23;;
41436;SDS011;27178;49.460;10.850;2022-09-20T07:44:16;4.97;;;2.83;;
41436;SDS011;27178;49.460;10.850;2022-09-20T07:46:50;4.50;;;2.60;;
41436;SDS011;27178;49.460;10.850;2022-09-20T07:49:20;5.23;;;2.80;;
41436;SDS011;27178;49.460;10.850;2022-09-20T07:51:49;5.23;;;2.53;;
41436;SDS011;27178;49.460;10.850;2022-09-20T07:54:17;6.20;;;3.65;;
41436;SDS011;27178;49.460;10.850;2022-09-20T07:56:48;3.93;;;2.57;;
41436;SDS011;27178;49.460;10.850;2022-09-20T07:59:16;5.27;;;3.27;;
41436;SDS011;27178;49.460;10.850;2022-09-20T08:01:44;7.10;;;3.38;;
41436;SDS011;27178;49.460;10.850;2022-09-20T08:04:12;5.75;;;2.55;;
41436;SDS011;27178;49.460;10.850;2022-09-20T08:06:42;5.03;;;2.73;;
41436;SDS011;27178;49.460;10.850;2022-09-20T08:09:11;9.17;;;2.70;;
41436;SDS011;27178;49.460;10.850;2022-09-20T08:11:40;8.70;;;2.38;;
41436;SDS011;27178;49.460;10.850;2022-09-20T08:14:13;4.40;;;2.60;;
41436;SDS011;27178;49.460;10.850;2022-09-20T08:16:42;3.20;;;2.20;;
41436;SDS011;27178;49.460;10.850;2022-09-20T08:19:13;5.22;;;2.42;;
41436;SDS011;27178;49.460;10.850;2022-09-20T08:21:43;3.80;;;2.03;;
41436;SDS011;27178;49.460;10.850;2022-09-20T08:24:12;4.50;;;2.57;;
41436;SDS011;27178;49.460;10.850;2022-09-20T08:26:42;5.32;;;2.60;;
41436;SDS011;27178;49.460;10.850;2022-09-20T08:29:11;5.23;;;2.63;;
41436;SDS011;27178;49.460;10.850;2022-09-20T08:31:41;5.23;;;2.30;;
41436;SDS011;27178;49.460;10.850;2022-09-20T08:34:10;3.88;;;2.30;;
41436;SDS011;27178;49.460;10.850;2022-09-20T08:36:41;4.20;;;2.43;;
41436;SDS011;27178;49.460;10.850;2022-09-20T08:39:12;4.37;;;2.03;;
41436;SDS011;27178;49.460;10.850;2022-09-20T08:42:04;4.88;;;1.92;;
41436;SDS011;27178;49.460;10.850;2022-09-20T08:44:42;4.20;;;1.90;;
41436;SDS011;27178;49.460;10.850;2022-09-20T08:47:26;4.63;;;2.13;;
41436;SDS011;27178;49.460;10.850;2022-09-20T08:49:57;2.37;;;1.83;;
41436;SDS011;27178;49.460;10.850;2022-09-20T08:52:35;3.45;;;1.90;;
41436;SDS011;27178;49.460;10.850;2022-09-20T08:55:11;4.53;;;2.30;;
41436;SDS011;27178;49.460;10.850;2022-09-20T08:57:43;4.43;;;1.63;;
41436;SDS011;27178;49.460;10.850;2022-09-20T09:00:17;5.97;;;2.10;;
41436;SDS011;27178;49.460;10.850;2022-09-20T09:02:47;5.05;;;1.70;;
41436;SDS011;27178;49.460;10.850;2022-09-20T09:05:26;5.25;;;2.00;;
41436;SDS011;27178;49.460;10.850;2022-09-20T09:07:57;4.75;;;2.00;;
41436;SDS011;27178;49.460;10.850;2022-09-20T09:10:31;5.47;;;1.85;;
41436;SDS011;27178;49.460;10.850;2022-09-20T09:13:09;3.88;;;1.83;;
41436;SDS011;27178;49.460;10.850;2022-09-20T09:15:46;4.03;;;1.70;;
41436;SDS011;27178;49.460;10.850;2022-09-20T09:18:24;2.92;;;1.50;;
41436;SDS011;27178;49.460;10.850;2022-09-20T09:21:00;2.20;;;1.40;;
41436;SDS011;27178;49.460;10.850;2022-09-20T09:23:36;4.65;;;2.10;;
41436;SDS011;27178;49.460;10.850;2022-09-20T09:26:13;4.30;;;2.05;;
41436;SDS011;27178;49.460;10.850;2022-09-20T09:28:46;2.83;;;1.80;;
41436;SDS011;27178;49.460;10.850;2022-09-20T09:31:35;4.28;;;2.15;;
41436;SDS011;27178;49.460;10.850;2022-09-20T09:34:11;2.63;;;1.65;;
41436;SDS011;27178;49.460;10.850;2022-09-20T09:36:50;3.85;;;1.83;;
41436;SDS011;27178;49.460;10.850;2022-09-20T09:39:23;4.90;;;1.90;;
41436;SDS011;27178;49.460;10.850;2022-09-20T09:41:53;4.63;;;1.80;;
41436;SDS011;27178;49.460;10.850;2022-09-20T09:44:22;8.32;;;1.58;;
41436;SDS011;27178;49.460;10.850;2022-09-20T09:46:54;3.85;;;2.10;;
41436;SDS011;27178;49.460;10.850;2022-09-20T09:49:24;3.00;;;1.73;;
41436;SDS011;27178;49.460;10.850;2022-09-20T09:52:00;3.67;;;1.98;;
41436;SDS011;27178;49.460;10.850;2022-09-20T09:54:34;4.07;;;1.77;;
41436;SDS011;27178;49.460;10.850;2022-09-20T09:57:10;3.47;;;1.50;;
41436;SDS011;27178;49.460;10.850;2022-09-20T09:59:59;3.78;;;1.65;;
41436;SDS011;27178;49.460;10.850;2022-09-20T10:05:56;4.38;;;1.95;;
41436;SDS011;27178;49.460;10.850;2022-09-20T10:08:40;5.50;;;1.75;;
41436;SDS011;27178;49.460;10.850;2022-09-20T10:11:21;3.30;;;1.73;;
41436;SDS011;27178;49.460;10.850;2022-09-20T10:13:59;6.07;;;2.20;;
41436;SDS011;27178;49.460;10.850;2022-09-20T10:16:43;4.22;;;2.10;;
41436;SDS011;27178;49.460;10.850;2022-09-20T10:19:28;2.13;;;1.58;;
41436;SDS011;27178;49.460;10.850;2022-09-20T10:22:08;2.92;;;1.80;;
41436;SDS011;27178;49.460;10.850;2022-09-20T10:24:46;4.82;;;1.95;;
41436;SDS011;27178;49.460;10.850;2022-09-20T10:27:22;6.57;;;1.85;;
41436;SDS011;27178;49.460;10.850;2022-09-20T10:30:03;3.08;;;1.80;;
41436;SDS011;27178;49.460;10.850;2022-09-20T10:32:46;5.32;;;1.90;;
41436;SDS011;27178;49.460;10.850;2022-09-20T10:35:29;3.30;;;2.03;;
41436;SDS011;27178;49.460;10.850;2022-09-20T10:38:14;2.58;;;1.50;;
41436;SDS011;27178;49.460;10.850;2022-09-20T10:40:52;3.95;;;1.75;;
41436;SDS011;27178;49.460;10.850;2022-09-20T10:43:52;4.63;;;1.90;;
41436;SDS011;27178;49.460;10.850;2022-09-20T10:46:39;2.30;;;1.67;;
41436;SDS011;27178;49.460;10.850;2022-09-20T10:49:19;3.30;;;1.90;;
41436;SDS011;27178;49.460;10.850;2022-09-20T10:51:56;2.35;;;1.88;;
41436;SDS011;27178;49.460;10.850;2022-09-20T10:54:45;2.03;;;1.75;;
41436;SDS011;27178;49.460;10.850;2022-09-20T10:57:36;4.32;;;1.90;;
41436;SDS011;27178;49.460;10.850;2022-09-20T11:00:18;2.70;;;1.65;;
41436;SDS011;27178;49.460;10.850;2022-09-20T11:02:52;4.20;;;1.52;;
41436;SDS011;27178;49.460;10.850;2022-09-20T11:05:36;2.88;;;1.42;;
41436;SDS011;27178;49.460;10.850;2022-09-20T11:08:14;6.40;;;2.25;;
41436;SDS011;27178;49.460;10.850;2022-09-20T11:10:49;3.65;;;2.13;;
41436;SDS011;27178;49.460;10.850;2022-09-20T11:13:22;2.13;;;1.90;;
41436;SDS011;27178;49.460;10.850;2022-09-20T11:15:55;7.00;;;2.15;;
41436;SDS011;27178;49.460;10.850;2022-09-20T11:18:32;2.75;;;1.65;;
41436;SDS011;27178;49.460;10.850;2022-09-20T11:21:07;7.00;;;1.38;;
41436;SDS011;27178;49.460;10.850;2022-09-20T11:23:46;3.00;;;1.40;;
41436;SDS011;27178;49.460;10.850;2022-09-20T11:26:20;4.10;;;1.75;;
41436;SDS011;27178;49.460;10.850;2022-09-20T11:28:53;2.83;;;1.65;;
41436;SDS011;27178;49.460;10.850;2022-09-20T11:31:29;3.03;;;1.48;;
41436;SDS011;27178;49.460;10.850;2022-09-20T11:34:04;5.15;;;1.50;;
41436;SDS011;27178;49.460;10.850;2022-09-20T11:36:39;1.90;;;1.13;;
41436;SDS011;27178;49.460;10.850;2022-09-20T11:39:16;4.25;;;1.70;;
41436;SDS011;27178;49.460;10.850;2022-09-20T11:41:48;2.25;;;1.50;;
41436;SDS011;27178;49.460;10.850;2022-09-20T11:44:21;2.65;;;1.38;;
41436;SDS011;27178;49.460;10.850;2022-09-20T11:46:50;2.95;;;1.40;;
41436;SDS011;27178;49.460;10.850;2022-09-20T11:49:22;3.13;;;1.40;;
41436;SDS011;27178;49.460;10.850;2022-09-20T11:55:04;2.72;;;1.42;;
41436;SDS011;27178;49.460;10.850;2022-09-20T11:58:00;1.20;;;0.90;;
41436;SDS011;27178;49.460;10.850;2022-09-20T12:00:30;0.93;;;0.82;;
41436;SDS011;27178;49.460;10.850;2022-09-20T12:03:01;1.23;;;0.77;;
41436;SDS011;27178;49.460;10.850;2022-09-20T12:05:34;1.60;;;0.80;;
41436;SDS011;27178;49.460;10.850;2022-09-20T12:08:04;2.90;;;0.98;;
41436;SDS011;27178;49.460;10.850;2022-09-20T12:10:47;0.80;;;0.80;;
41436;SDS011;27178;49.460;10.850;2022-09-20T12:13:24;1.77;;;0.98;;
41436;SDS011;27178;49.460;10.850;2022-09-20T12:15:58;1.35;;;1.10;;
41436;SDS011;27178;49.460;10.850;2022-09-20T12:18:35;1.15;;;0.88;;
41436;SDS011;27178;49.460;10.850;2022-09-20T12:21:15;1.50;;;1.20;;
41436;SDS011;27178;49.460;10.850;2022-09-20T12:26:51;1.42;;;1.30;;
41436;SDS011;27178;49.460;10.850;2022-09-20T12:32:40;2.63;;;1.48;;
41436;SDS011;27178;49.460;10.850;2022-09-20T12:38:28;1.85;;;1.17;;
41436;SDS011;27178;49.460;10.850;2022-09-20T12:41:08;1.30;;;1.10;;
41436;SDS011;27178;49.460;10.850;2022-09-20T12:43:51;4.15;;;1.50;;
41436;SDS011;27178;49.460;10.850;2022-09-20T12:46:24;1.83;;;1.08;;
41436;SDS011;27178;49.460;10.850;2022-09-20T12:52:26;1.55;;;0.90;;
41436;SDS011;27178;49.460;10.850;2022-09-20T12:55:30;1.15;;;0.82;;
41436;SDS011;27178;49.460;10.850;2022-09-20T12:58:19;3.10;;;1.13;;
41436;SDS011;27178;49.460;10.850;2022-09-20T13:01:30;1.23;;;0.77;;
41436;SDS011;27178;49.460;10.850;2022-09-20T13:10:21;2.78;;;1.10;;
41436;SDS011;27178;49.460;10.850;2022-09-20T13:12:56;2.00;;;1.27;;
41436;SDS011;27178;49.460;10.850;2022-09-20T13:15:27;2.00;;;1.10;;
41436;SDS011;27178;49.460;10.850;2022-09-20T13:17:59;4.00;;;0.95;;
41436;SDS011;27178;49.460;10.850;2022-09-20T13:20:28;1.73;;;1.05;;
41436;SDS011;27178;49.460;10.850;2022-09-20T13:23:00;1.13;;;0.98;;
41436;SDS011;27178;49.460;10.850;2022-09-20T13:25:32;1.63;;;1.08;;
41436;SDS011;27178;49.460;10.850;2022-09-20T13:28:04;2.15;;;1.20;;
41436;SDS011;27178;49.460;10.850;2022-09-20T13:30:35;1.52;;;0.98;;
41436;SDS011;27178;49.460;10.850;2022-09-20T13:33:15;1.90;;;1.10;;
41436;SDS011;27178;49.460;10.850;2022-09-20T13:35:48;3.45;;;1.27;;
41436;SDS011;27178;49.460;10.850;2022-09-20T13:38:19;1.42;;;1.00;;
41436;SDS011;27178;49.460;10.850;2022-09-20T13:40:51;1.27;;;1.02;;
41436;SDS011;27178;49.460;10.850;2022-09-20T13:43:26;1.08;;;0.90;;
41436;SDS011;27178;49.460;10.850;2022-09-20T13:45:57;1.42;;;0.90;;
41436;SDS011;27178;49.460;10.850;2022-09-20T13:48:34;1.58;;;1.20;;
41436;SDS011;27178;49.460;10.850;2022-09-20T13:51:02;1.67;;;0.90;;
41436;SDS011;27178;49.460;10.850;2022-09-20T13:53:41;2.22;;;1.17;;
41436;SDS011;27178;49.460;10.850;2022-09-20T13:56:10;2.08;;;1.15;;
41436;SDS011;27178;49.460;10.850;2022-09-20T13:58:45;1.17;;;0.93;;
41436;SDS011;27178;49.460;10.850;2022-09-20T14:01:19;1.70;;;1.00;;
41436;SDS011;27178;49.460;10.850;2022-09-20T14:03:51;1.10;;;0.80;;
41436;SDS011;27178;49.460;10.850;2022-09-20T14:06:22;2.03;;;0.90;;
41436;SDS011;27178;49.460;10.850;2022-09-20T14:08:54;3.20;;;1.30;;
41436;SDS011;27178;49.460;10.850;2022-09-20T14:11:25;2.25;;;0.98;;
41436;SDS011;27178;49.460;10.850;2022-09-20T14:13:56;2.85;;;1.25;;
41436;SDS011;27178;49.460;10.850;2022-09-20T14:16:27;2.45;;;0.80;;
41436;SDS011;27178;49.460;10.850;2022-09-20T14:18:59;1.00;;;0.73;;
41436;SDS011;27178;49.460;10.850;2022-09-20T14:21:30;2.97;;;0.60;;
41436;SDS011;27178;49.460;10.850;2022-09-20T14:24:00;1.73;;;0.90;;
41436;SDS011;27178;49.460;10.850;2022-09-20T14:26:33;0.82;;;0.60;;
41436;SDS011;27178;49.460;10.850;2022-09-20T14:31:56;0.90;;;0.70;;
41436;SDS011;27178;49.460;10.850;2022-09-20T14:34:28;1.30;;;0.68;;
41436;SDS011;27178;49.460;10.850;2022-09-20T14:37:01;0.80;;;0.68;;
41436;SDS011;27178;49.460;10.850;2022-09-20T14:39:33;1.70;;;0.75;;
41436;SDS011;27178;49.460;10.850;2022-09-20T14:42:15;0.95;;;0.75;;
41436;SDS011;27178;49.460;10.850;2022-09-20T14:44:49;0.73;;;0.70;;
41436;SDS011;27178;49.460;10.850;2022-09-20T14:47:25;2.00;;;1.00;;
41436;SDS011;27178;49.460;10.850;2022-09-20T14:49:56;1.48;;;0.90;;
41436;SDS011;27178;49.460;10.850;2022-09-20T14:52:34;1.42;;;1.15;;
41436;SDS011;27178;49.460;10.850;2022-09-20T14:55:15;2.13;;;1.70;;
41436;SDS011;27178;49.460;10.850;2022-09-20T14:57:48;1.55;;;0.93;;
41436;SDS011;27178;49.460;10.850;2022-09-20T15:00:17;2.65;;;1.13;;
41436;SDS011;27178;49.460;10.850;2022-09-20T15:02:46;3.33;;;1.70;;
41436;SDS011;27178;49.460;10.850;2022-09-20T15:05:22;1.30;;;1.20;;
41436;SDS011;27178;49.460;10.850;2022-09-20T15:07:52;2.95;;;1.40;;
41436;SDS011;27178;49.460;10.850;2022-09-20T15:10:21;2.33;;;1.20;;
41436;SDS011;27178;49.460;10.850;2022-09-20T15:12:50;0.98;;;0.73;;
41436;SDS011;27178;49.460;10.850;2022-09-20T15:15:19;1.88;;;1.13;;
41436;SDS011;27178;49.460;10.850;2022-09-20T15:17:47;2.03;;;1.23;;
41436;SDS011;27178;49.460;10.850;2022-09-20T15:20:16;1.10;;;0.80;;
41436;SDS011;27178;49.460;10.850;2022-09-20T15:22:51;1.70;;;0.95;;
41436;SDS011;27178;49.460;10.850;2022-09-20T15:25:19;3.88;;;1.20;;
41436;SDS011;27178;49.460;10.850;2022-09-20T15:27:48;1.48;;;0.82;;
41436;SDS011;27178;49.460;10.850;2022-09-20T15:30:17;1.77;;;0.98;;
41436;SDS011;27178;49.460;10.850;2022-09-20T15:32:46;1.23;;;0.90;;
41436;SDS011;27178;49.460;10.850;2022-09-20T15:35:14;2.00;;;0.95;;
41436;SDS011;27178;49.460;10.850;2022-09-20T15:37:43;2.10;;;1.20;;
41436;SDS011;27178;49.460;10.850;2022-09-20T15:40:13;1.63;;;0.90;;
41436;SDS011;27178;49.460;10.850;2022-09-20T15:42:41;2.45;;;1.38;;
41436;SDS011;27178;49.460;10.850;2022-09-20T15:45:11;1.83;;;1.13;;
41436;SDS011;27178;49.460;10.850;2022-09-20T15:47:40;1.25;;;0.85;;
41436;SDS011;27178;49.460;10.850;2022-09-20T15:50:09;2.15;;;1.20;;
41436;SDS011;27178;49.460;10.850;2022-09-20T15:52:37;1.30;;;0.85;;
41436;SDS011;27178;49.460;10.850;2022-09-20T15:55:07;1.42;;;1.33;;
41436;SDS011;27178;49.460;10.850;2022-09-20T15:57:37;2.75;;;1.27;;
41436;SDS011;27178;49.460;10.850;2022-09-20T16:00:07;2.10;;;1.08;;
41436;SDS011;27178;49.460;10.850;2022-09-20T16:02:36;1.52;;;1.10;;
41436;SDS011;27178;49.460;10.850;2022-09-20T16:05:05;2.22;;;1.27;;
41436;SDS011;27178;49.460;10.850;2022-09-20T16:07:35;2.70;;;1.40;;
41436;SDS011;27178;49.460;10.850;2022-09-20T16:10:04;0.85;;;0.75;;
41436;SDS011;27178;49.460;10.850;2022-09-20T16:12:33;1.35;;;1.25;;
41436;SDS011;27178;49.460;10.850;2022-09-20T16:15:04;1.15;;;0.90;;
41436;SDS011;27178;49.460;10.850;2022-09-20T16:17:33;2.75;;;1.08;;
41436;SDS011;27178;49.460;10.850;2022-09-20T16:20:19;3.55;;;1.65;;
41436;SDS011;27178;49.460;10.850;2022-09-20T16:22:48;2.10;;;1.88;;
41436;SDS011;27178;49.460;10.850;2022-09-20T16:25:17;3.13;;;2.38;;
41436;SDS011;27178;49.460;10.850;2022-09-20T16:27:45;2.10;;;1.80;;
41436;SDS011;27178;49.460;10.850;2022-09-20T16:30:15;3.92;;;1.83;;
41436;SDS011;27178;49.460;10.850;2022-09-20T16:32:44;2.15;;;1.60;;
41436;SDS011;27178;49.460;10.850;2022-09-20T16:35:13;2.08;;;1.98;;